Terminal Aerodrome Forecast
Issued by NWS Topeka, KS

Home | Current Version | Previous Version | Text Only | Print | Product List | Glossary Off
Versions: 1 2 3 4 5 6 7 8 9 10 11 12 13 14 15 16 17 18

006
FTUS43 KTOP 240900 AAB
TAFTOP
TAF AMD
KTOP 240900Z 2409/2506 VRB03KT P6SM BKN150 WS006/23030KT
     FM241400 26007KT P6SM SCT150 PROB30 2421/2424 6SM -TSRA
      SCT070CB BKN150
     FM250000 04007KT P6SM SCT070 BKN150 PROB30 2500/2504 6SM -TSRA
      BKN070CB=

USA.gov is the U.S. government's official web portal to all federal, state and local government web resources and services.